createdAt,value
2018-01-23T00:00:10.672Z,4.87
2018-01-23T00:02:37.068Z,4.87
2018-01-23T00:05:03.476Z,5.13
2018-01-23T00:07:29.895Z,5.43
2018-01-23T00:09:56.303Z,4.70
2018-01-23T00:12:22.728Z,4.97
2018-01-23T00:14:49.107Z,4.47
2018-01-23T00:17:15.512Z,5.07
2018-01-23T00:19:42.076Z,4.40
2018-01-23T00:22:08.477Z,4.93
2018-01-23T00:24:34.868Z,4.50
2018-01-23T00:27:01.428Z,4.63
2018-01-23T00:29:27.823Z,4.17
2018-01-23T00:31:54.217Z,4.17
2018-01-23T00:34:20.667Z,4.30
2018-01-23T00:36:47.055Z,4.43
2018-01-23T00:39:13.985Z,3.90
2018-01-23T00:41:40.401Z,4.37
2018-01-23T00:44:06.866Z,4.47
2018-01-23T00:46:33.228Z,4.10
2018-01-23T00:48:59.653Z,3.90
2018-01-23T00:51:26.088Z,3.67
2018-01-23T00:53:54.522Z,4.53
2018-01-23T00:56:21.508Z,4.03
2018-01-23T00:58:47.919Z,4.03
2018-01-23T01:01:14.379Z,4.47
2018-01-23T01:03:40.803Z,4.43
2018-01-23T01:06:07.194Z,3.97
2018-01-23T01:08:33.600Z,4.40
2018-01-23T01:11:00.015Z,4.03
2018-01-23T01:13:26.422Z,4.10
2018-01-23T01:20:58.553Z,3.77
2018-01-23T01:23:24.964Z,4.07
2018-01-23T01:25:51.388Z,3.40
2018-01-23T01:28:17.787Z,4.10
2018-01-23T01:30:44.368Z,4.00
2018-01-23T01:33:10.784Z,3.67
2018-01-23T01:35:37.183Z,3.60
2018-01-23T01:38:03.585Z,3.57
2018-01-23T01:40:29.976Z,4.30
2018-01-23T01:42:56.381Z,3.40
2018-01-23T01:45:22.806Z,3.60
2018-01-23T01:47:49.196Z,3.20
2018-01-23T01:50:17.668Z,3.63
2018-01-23T01:52:44.080Z,3.40
2018-01-23T01:55:10.472Z,3.30
2018-01-23T01:57:36.871Z,3.70
2018-01-23T02:00:03.280Z,3.73
2018-01-23T02:02:29.661Z,3.90
2018-01-23T02:04:56.068Z,3.80
2018-01-23T02:07:22.495Z,3.43
2018-01-23T02:09:48.908Z,3.17
2018-01-23T02:17:19.771Z,3.17
2018-01-23T02:19:46.174Z,3.30
2018-01-23T02:22:12.587Z,3.83
2018-01-23T02:24:39.002Z,3.80
2018-01-23T02:27:05.552Z,3.50
2018-01-23T02:29:31.965Z,4.30
2018-01-23T02:31:58.375Z,3.37
2018-01-23T02:34:24.820Z,3.60
2018-01-23T02:36:51.224Z,3.40
2018-01-23T02:39:18.716Z,3.40
2018-01-23T02:41:45.120Z,3.63
2018-01-23T02:44:11.516Z,3.37
2018-01-23T02:46:37.901Z,3.30
2018-01-23T02:49:04.319Z,3.60
2018-01-23T02:51:30.717Z,4.27
2018-01-23T02:53:57.124Z,3.83
2018-01-23T02:56:23.531Z,3.57
2018-01-23T02:58:49.938Z,3.53
2018-01-23T03:01:16.372Z,3.93
2018-01-23T03:03:42.789Z,3.80
2018-01-23T03:06:09.209Z,3.40
2018-01-23T03:08:35.601Z,3.80
2018-01-23T03:11:02.006Z,3.37
2018-01-23T03:13:28.428Z,3.50
2018-01-23T03:15:54.845Z,4.00
2018-01-23T03:18:21.228Z,3.03
2018-01-23T03:20:47.637Z,3.57
2018-01-23T03:23:14.020Z,3.77
2018-01-23T03:25:40.444Z,3.60
2018-01-23T03:28:06.845Z,3.63
2018-01-23T03:30:33.231Z,3.87
2018-01-23T03:32:59.667Z,3.33
2018-01-23T03:35:26.064Z,3.70
2018-01-23T03:37:52.471Z,3.63
2018-01-23T03:40:18.879Z,3.57
2018-01-23T03:42:45.275Z,3.37
2018-01-23T03:45:11.716Z,3.70
2018-01-23T03:47:38.153Z,3.73
2018-01-23T03:50:04.580Z,3.80
2018-01-23T03:52:30.982Z,3.80
2018-01-23T03:54:57.384Z,3.40
2018-01-23T03:57:23.772Z,3.70
2018-01-23T03:59:50.170Z,3.97
2018-01-23T04:02:16.618Z,3.67
2018-01-23T04:04:43.020Z,3.57
2018-01-23T04:07:09.417Z,3.40
2018-01-23T04:09:35.854Z,3.83
2018-01-23T04:12:02.251Z,3.40
2018-01-23T04:14:28.664Z,3.40
2018-01-23T04:16:55.100Z,3.20
2018-01-23T04:19:21.499Z,3.20
2018-01-23T04:21:47.908Z,3.47
2018-01-23T04:24:14.325Z,3.73
2018-01-23T04:26:40.732Z,3.23
2018-01-23T04:29:07.120Z,3.40
2018-01-23T04:31:33.549Z,3.33
2018-01-23T04:33:59.939Z,3.33
2018-01-23T04:36:26.348Z,3.40
2018-01-23T04:38:52.841Z,3.57
2018-01-23T04:41:19.196Z,3.10
2018-01-23T04:43:45.609Z,3.17
2018-01-23T04:46:12.073Z,3.47
2018-01-23T04:48:38.460Z,3.50
2018-01-23T04:51:04.868Z,3.40
2018-01-23T04:53:31.281Z,3.00
2018-01-23T04:55:57.723Z,3.00
2018-01-23T04:58:26.136Z,3.30
2018-01-23T05:00:54.629Z,3.30
2018-01-23T05:03:21.036Z,2.90
2018-01-23T05:05:47.444Z,3.40
2018-01-23T05:08:13.853Z,3.90
2018-01-23T05:10:40.248Z,3.57
2018-01-23T05:13:07.752Z,3.77
2018-01-23T05:15:34.174Z,4.17
2018-01-23T05:18:00.576Z,3.50
2018-01-23T05:20:26.968Z,3.47
2018-01-23T05:22:53.380Z,4.13
2018-01-23T05:25:19.768Z,4.20
2018-01-23T05:27:46.235Z,3.63
2018-01-23T05:30:12.599Z,3.87
2018-01-23T05:32:39.024Z,3.60
2018-01-23T05:35:07.438Z,4.00
2018-01-23T05:37:33.844Z,3.10
2018-01-23T05:40:00.258Z,3.03
2018-01-23T05:45:04.661Z,3.10
2018-01-23T05:47:31.085Z,3.50
2018-01-23T05:49:57.480Z,2.97
2018-01-23T05:52:23.901Z,3.57
2018-01-23T05:54:50.288Z,3.63
2018-01-23T05:57:16.710Z,3.60
2018-01-23T05:59:43.263Z,3.20
2018-01-23T06:02:09.674Z,3.50
2018-01-23T06:04:36.068Z,3.40
2018-01-23T06:07:02.480Z,3.77
2018-01-23T06:09:28.872Z,3.53
2018-01-23T06:11:55.286Z,3.73
2018-01-23T06:14:21.692Z,3.70
2018-01-23T06:16:50.198Z,3.70
2018-01-23T06:19:16.584Z,4.10
2018-01-23T06:21:42.987Z,3.47
2018-01-23T06:24:09.393Z,3.53
2018-01-23T06:26:35.819Z,3.40
2018-01-23T06:29:02.204Z,2.93
2018-01-23T06:31:28.588Z,2.93
2018-01-23T06:33:55.007Z,4.80
2018-01-23T06:36:21.412Z,4.17
2018-01-23T06:38:47.840Z,3.40
2018-01-23T06:41:14.233Z,3.63
2018-01-23T06:43:40.640Z,2.90
2018-01-23T06:46:07.050Z,3.60
2018-01-23T06:48:33.441Z,3.20
2018-01-23T06:50:59.841Z,3.30
2018-01-23T06:53:26.233Z,3.30
2018-01-23T06:55:52.624Z,2.90
2018-01-23T06:58:19.074Z,3.10
2018-01-23T07:00:46.241Z,3.03
2018-01-23T07:03:12.639Z,3.20
2018-01-23T07:05:39.047Z,2.90
2018-01-23T07:08:05.440Z,2.83
2018-01-23T07:10:31.864Z,3.10
2018-01-23T07:12:58.289Z,3.17
2018-01-23T07:15:24.677Z,2.50
2018-01-23T07:17:51.068Z,2.80
2018-01-23T07:20:17.662Z,2.83
2018-01-23T07:22:44.036Z,2.77
2018-01-23T07:25:10.424Z,2.80
2018-01-23T07:27:36.977Z,2.47
2018-01-23T07:30:03.368Z,2.83
2018-01-23T07:32:29.769Z,2.90
2018-01-23T07:34:56.192Z,2.60
2018-01-23T07:37:22.591Z,2.67
2018-01-23T07:39:48.981Z,2.60
2018-01-23T07:42:15.392Z,2.83
2018-01-23T07:44:41.808Z,2.90
2018-01-23T07:47:08.203Z,2.67
2018-01-23T07:49:34.635Z,2.63
2018-01-23T07:52:01.025Z,2.90
2018-01-23T07:54:27.452Z,2.10
2018-01-23T07:56:53.908Z,2.80
2018-01-23T07:59:20.296Z,2.93
2018-01-23T08:01:46.687Z,3.20
2018-01-23T08:04:13.100Z,2.90
2018-01-23T08:06:39.501Z,2.87
2018-01-23T08:09:05.922Z,2.50
2018-01-23T08:11:32.338Z,2.53
2018-01-23T08:13:58.729Z,2.70
2018-01-23T08:16:25.124Z,2.70
2018-01-23T08:18:51.528Z,2.70
2018-01-23T08:21:17.925Z,2.50
2018-01-23T08:23:44.312Z,2.50
2018-01-23T08:26:10.742Z,2.83
2018-01-23T08:28:37.139Z,2.63
2018-01-23T08:31:03.561Z,2.40
2018-01-23T08:33:29.958Z,2.30
2018-01-23T08:35:56.400Z,2.70
2018-01-23T08:38:22.807Z,2.70
2018-01-23T08:40:49.206Z,2.50
2018-01-23T08:43:15.632Z,2.27
2018-01-23T08:45:42.036Z,2.40
2018-01-23T08:48:08.445Z,2.40
2018-01-23T08:50:34.866Z,2.27
2018-01-23T08:53:01.276Z,2.87
2018-01-23T08:55:27.663Z,2.33
2018-01-23T08:57:54.064Z,2.67
2018-01-23T09:00:20.473Z,2.50
2018-01-23T09:02:46.866Z,2.37
2018-01-23T09:05:13.272Z,2.27
2018-01-23T09:07:39.680Z,2.70
2018-01-23T09:10:06.080Z,2.70
2018-01-23T09:12:32.483Z,2.70
2018-01-23T09:14:58.891Z,2.70
2018-01-23T09:17:25.292Z,2.60
2018-01-23T09:19:51.706Z,2.50
2018-01-23T09:22:18.100Z,2.43
2018-01-23T09:24:44.508Z,2.63
2018-01-23T09:27:10.902Z,2.10
2018-01-23T09:29:37.291Z,2.40
2018-01-23T09:32:03.708Z,2.60
2018-01-23T09:34:30.113Z,2.67
2018-01-23T09:36:56.515Z,2.50
2018-01-23T09:39:22.931Z,2.37
2018-01-23T09:41:49.409Z,2.30
2018-01-23T09:44:15.848Z,2.40
2018-01-23T09:46:42.264Z,2.30
2018-01-23T09:49:08.693Z,2.57
2018-01-23T09:51:35.103Z,2.10
2018-01-23T09:54:01.500Z,2.50
2018-01-23T09:56:27.911Z,2.47
2018-01-23T09:58:54.332Z,2.23
2018-01-23T10:01:20.898Z,2.10
2018-01-23T10:03:47.284Z,2.57
2018-01-23T10:06:13.704Z,2.00
2018-01-23T10:08:40.108Z,2.33
2018-01-23T10:11:06.528Z,2.43
2018-01-23T10:13:32.924Z,2.30
2018-01-23T10:15:59.340Z,2.40
2018-01-23T10:18:25.749Z,2.10
2018-01-23T10:20:52.148Z,2.10
2018-01-23T10:23:18.601Z,2.30
2018-01-23T10:25:45.009Z,2.23
2018-01-23T10:28:11.417Z,2.30
2018-01-23T10:30:37.822Z,2.60
2018-01-23T10:33:04.212Z,2.30
2018-01-23T10:35:30.631Z,2.17
2018-01-23T10:37:57.030Z,2.00
2018-01-23T10:40:23.440Z,2.30
2018-01-23T10:42:49.979Z,2.20
2018-01-23T10:45:16.366Z,2.20
2018-01-23T10:47:42.759Z,2.53
2018-01-23T10:50:10.018Z,2.10
2018-01-23T10:52:36.428Z,2.03
2018-01-23T10:55:02.876Z,2.10
2018-01-23T10:57:29.281Z,2.30
2018-01-23T10:59:56.381Z,2.37
2018-01-23T11:02:22.788Z,2.40
2018-01-23T11:04:49.705Z,2.40
2018-01-23T11:07:16.272Z,2.43
2018-01-23T11:09:42.676Z,2.17
2018-01-23T11:12:09.091Z,1.90
2018-01-23T11:14:35.529Z,2.30
2018-01-23T11:17:01.920Z,2.00
2018-01-23T11:19:28.483Z,2.10
2018-01-23T11:21:54.877Z,2.43
2018-01-23T11:24:21.276Z,2.20
2018-01-23T11:26:47.696Z,2.50
2018-01-23T11:29:14.075Z,2.67
2018-01-23T11:31:40.487Z,2.60
2018-01-23T11:34:06.887Z,2.30
2018-01-23T11:36:33.281Z,3.00
2018-01-23T11:38:59.721Z,2.30
2018-01-23T11:41:26.107Z,2.47
2018-01-23T11:43:52.516Z,2.47
2018-01-23T11:46:18.976Z,1.90
2018-01-23T11:48:45.341Z,2.00
2018-01-23T11:51:11.739Z,2.27
2018-01-23T11:53:38.177Z,7.13
2018-01-23T11:56:04.552Z,8.33
2018-01-23T11:58:30.955Z,8.33
2018-01-23T12:00:57.598Z,9.47
2018-01-23T12:03:23.996Z,11.47
2018-01-23T12:05:50.434Z,11.43
2018-01-23T12:08:16.863Z,12.53
2018-01-23T12:10:43.303Z,14.07
2018-01-23T12:13:09.707Z,11.83
2018-01-23T12:15:36.283Z,14.77
2018-01-23T12:18:02.720Z,14.07
2018-01-23T12:20:29.128Z,14.80
2018-01-23T12:22:55.563Z,17.20
2018-01-23T12:25:21.975Z,15.30
2018-01-23T12:27:48.379Z,15.73
2018-01-23T12:30:14.820Z,16.53
2018-01-23T12:32:41.238Z,17.00
2018-01-23T12:35:08.161Z,17.30
2018-01-23T12:37:34.576Z,17.43
2018-01-23T12:40:00.999Z,17.13
2018-01-23T12:42:27.435Z,17.43
2018-01-23T12:44:53.865Z,16.23
2018-01-23T12:47:20.275Z,16.70
2018-01-23T12:49:46.692Z,17.80
2018-01-23T12:52:13.132Z,16.53
2018-01-23T12:54:39.539Z,17.10
2018-01-23T12:57:05.948Z,16.93
2018-01-23T12:59:32.380Z,16.67
2018-01-23T13:01:58.763Z,16.90
2018-01-23T13:04:25.172Z,17.57
2018-01-23T13:06:51.595Z,16.07
2018-01-23T13:09:18.009Z,15.70
2018-01-23T13:11:44.414Z,15.50
2018-01-23T13:14:10.848Z,14.87
2018-01-23T13:16:37.256Z,15.10
2018-01-23T13:19:03.656Z,16.13
2018-01-23T13:21:30.084Z,14.47
2018-01-23T13:23:56.491Z,14.13
2018-01-23T13:26:24.204Z,13.67
2018-01-23T13:28:50.619Z,14.20
2018-01-23T13:31:17.032Z,14.23
2018-01-23T13:33:43.595Z,12.47
2018-01-23T13:36:09.999Z,12.00
2018-01-23T13:38:36.401Z,12.17
2018-01-23T13:41:02.820Z,11.43
2018-01-23T13:43:29.224Z,12.27
2018-01-23T13:45:55.629Z,12.03
2018-01-23T13:48:22.061Z,11.73
2018-01-23T13:50:48.471Z,11.43
2018-01-23T13:53:14.879Z,10.73
2018-01-23T13:55:41.308Z,11.33
2018-01-23T13:58:07.716Z,10.77
2018-01-23T14:00:34.123Z,10.47
2018-01-23T14:03:00.547Z,9.80
2018-01-23T14:05:26.968Z,10.00
2018-01-23T14:07:53.376Z,9.50
2018-01-23T14:10:19.796Z,10.20
2018-01-23T14:12:46.192Z,9.53
2018-01-23T14:15:12.592Z,9.27
2018-01-23T14:17:39.005Z,9.07
2018-01-23T14:20:05.408Z,8.63
2018-01-23T14:22:31.804Z,8.47
2018-01-23T14:24:58.347Z,8.93
2018-01-23T14:27:24.739Z,9.17
2018-01-23T14:29:51.132Z,8.20
2018-01-23T14:32:17.552Z,8.70
2018-01-23T14:34:43.967Z,8.70
2018-01-23T14:37:10.386Z,8.20
2018-01-23T14:39:36.798Z,7.83
2018-01-23T14:42:03.197Z,7.80
2018-01-23T14:44:29.591Z,8.33
2018-01-23T14:46:56.020Z,7.27
2018-01-23T14:49:22.430Z,7.33
2018-01-23T14:51:48.949Z,7.00
2018-01-23T14:54:15.340Z,7.17
2018-01-23T14:56:41.765Z,6.63
2018-01-23T14:59:08.196Z,7.53
2018-01-23T15:01:34.615Z,6.93
2018-01-23T15:04:01.552Z,7.30
2018-01-23T15:06:29.070Z,6.47
2018-01-23T15:08:55.471Z,6.93
2018-01-23T15:11:21.891Z,6.37
2018-01-23T15:13:48.296Z,7.00
2018-01-23T15:16:14.728Z,6.40
2018-01-23T15:18:41.129Z,6.53
2018-01-23T15:21:07.532Z,6.47
2018-01-23T15:23:33.965Z,6.60
2018-01-23T15:26:00.378Z,6.10
2018-01-23T15:28:26.793Z,6.20
2018-01-23T15:30:53.235Z,6.13
2018-01-23T15:33:19.643Z,6.07
2018-01-23T15:35:48.184Z,5.40
2018-01-23T15:38:14.577Z,5.87
2018-01-23T15:40:41.131Z,5.67
2018-01-23T15:43:07.550Z,5.47
2018-01-23T15:45:33.980Z,5.20
2018-01-23T15:48:00.400Z,5.53
2018-01-23T15:50:26.825Z,5.23
2018-01-23T15:52:53.279Z,4.93
2018-01-23T15:55:19.709Z,5.20
2018-01-23T15:57:48.184Z,5.40
2018-01-23T16:00:14.601Z,5.50
2018-01-23T16:02:41.008Z,5.53
2018-01-23T16:05:07.436Z,5.17
2018-01-23T16:07:33.852Z,4.73
2018-01-23T16:10:00.269Z,4.87
2018-01-23T16:12:26.667Z,4.73
2018-01-23T16:14:53.071Z,4.63
2018-01-23T16:17:19.491Z,4.97
2018-01-23T16:19:45.875Z,5.10
2018-01-23T16:22:12.304Z,4.73
2018-01-23T16:24:38.703Z,5.07
2018-01-23T16:27:05.104Z,4.67
2018-01-23T16:50:41.464Z,4.62
2018-01-23T16:53:08.425Z,4.27
2018-01-23T16:55:35.369Z,4.40
2018-01-23T16:58:02.309Z,4.90
2018-01-23T17:00:30.042Z,4.23
2018-01-23T17:02:59.860Z,4.13
2018-01-23T17:05:26.789Z,3.90
2018-01-23T17:07:54.500Z,4.57
2018-01-23T17:10:23.567Z,3.43
2018-01-23T17:12:50.374Z,4.00
2018-01-23T17:15:18.138Z,3.97
2018-01-23T17:17:45.600Z,3.70
2018-01-23T17:22:50.412Z,3.43
2018-01-23T17:25:17.712Z,3.90
2018-01-23T17:27:44.717Z,3.70
2018-01-23T17:30:13.392Z,3.57
2018-01-23T17:32:42.129Z,3.20
2018-01-23T17:35:08.961Z,3.50
2018-01-23T17:37:35.905Z,4.03
2018-01-23T17:40:03.589Z,3.13
2018-01-23T17:42:34.180Z,3.40
2018-01-23T17:45:01.899Z,3.27
2018-01-23T17:47:28.851Z,3.00
2018-01-23T17:49:55.797Z,3.80
2018-01-23T17:52:22.812Z,2.80
2018-01-23T17:54:51.627Z,3.27
2018-01-23T17:57:18.463Z,3.10
2018-01-23T17:59:45.404Z,2.67
2018-01-23T18:02:12.358Z,3.07
2018-01-23T18:04:39.294Z,2.83
2018-01-23T18:07:07.024Z,3.20
2018-01-23T18:09:33.961Z,2.80
2018-01-23T18:12:00.942Z,3.07
2018-01-23T18:14:27.916Z,2.80
2018-01-23T18:16:55.656Z,2.80
2018-01-23T18:19:22.612Z,2.90
2018-01-23T18:21:49.602Z,2.67
2018-01-23T18:24:16.545Z,2.67
2018-01-23T18:26:44.275Z,2.50
2018-01-23T18:29:11.228Z,2.77
2018-01-23T18:31:38.191Z,2.43
2018-01-23T18:34:05.127Z,2.27
2018-01-23T18:36:32.106Z,2.00
2018-01-23T18:38:59.051Z,2.40
2018-01-23T18:41:25.990Z,2.60
2018-01-23T18:43:52.943Z,2.83
2018-01-23T18:46:19.880Z,2.53
2018-01-23T18:51:22.923Z,2.03
2018-01-23T18:53:50.632Z,2.27
2018-01-23T18:56:17.592Z,2.40
2018-01-23T18:58:44.552Z,2.63
2018-01-23T19:01:12.166Z,2.50
2018-01-23T19:03:39.881Z,2.40
2018-01-23T19:06:06.858Z,2.10
2018-01-23T19:08:33.793Z,2.30
2018-01-23T19:11:00.748Z,2.20
2018-01-23T19:13:27.706Z,2.13
2018-01-23T19:18:29.328Z,1.90
2018-01-23T19:20:56.269Z,2.40
2018-01-23T19:23:23.238Z,2.10
2018-01-23T19:25:50.195Z,2.20
2018-01-23T19:28:17.151Z,2.20
2018-01-23T19:33:19.708Z,2.40
2018-01-23T19:35:47.797Z,2.40
2018-01-23T19:38:14.756Z,2.30
2018-01-23T19:40:41.708Z,2.43
2018-01-23T19:43:08.657Z,2.10
2018-01-23T19:45:35.600Z,2.50
2018-01-23T19:48:02.681Z,2.40
2018-01-23T19:58:10.718Z,10.77
2018-01-23T20:00:37.674Z,7.50
2018-01-23T20:03:04.614Z,10.80
2018-01-23T20:05:31.556Z,14.00
2018-01-23T20:07:59.280Z,16.63
2018-01-23T20:10:26.233Z,22.63
2018-01-23T20:12:53.189Z,25.70
2018-01-23T20:15:20.136Z,31.23
2018-01-23T20:17:47.125Z,30.30
2018-01-23T20:20:20.642Z,33.33
2018-01-23T20:25:21.172Z,36.30
2018-01-23T20:27:48.901Z,36.90
2018-01-23T20:30:15.870Z,36.83
2018-01-23T20:32:42.836Z,31.13
2018-01-23T20:35:10.571Z,33.37
2018-01-23T20:37:38.322Z,34.47
2018-01-23T20:40:05.278Z,34.90
2018-01-23T20:42:32.320Z,34.47
2018-01-23T20:44:59.264Z,33.07
2018-01-23T20:47:26.241Z,34.30
2018-01-23T20:49:53.209Z,34.07
2018-01-23T20:52:21.293Z,32.70
2018-01-23T20:54:49.304Z,34.50
2018-01-23T20:57:16.257Z,34.40
2018-01-23T20:59:43.220Z,33.27
2018-01-23T21:02:10.216Z,32.20
2018-01-23T21:04:37.129Z,32.10
2018-01-23T21:09:38.778Z,31.87
2018-01-23T21:12:05.729Z,32.33
2018-01-23T21:14:32.666Z,33.90
2018-01-23T21:17:00.401Z,33.33
2018-01-23T21:19:27.352Z,31.43
2018-01-23T21:21:54.309Z,32.03
2018-01-23T21:24:21.279Z,31.30
2018-01-23T21:26:51.007Z,31.37
2018-01-23T21:29:18.713Z,32.03
2018-01-23T21:31:48.694Z,31.53
2018-01-23T21:34:16.431Z,29.67
2018-01-23T21:36:43.389Z,30.93
2018-01-23T21:39:10.329Z,28.77
2018-01-23T21:46:46.270Z,29.17
2018-01-23T21:49:13.373Z,29.83
2018-01-23T21:51:40.328Z,28.10
2018-01-23T21:54:07.661Z,28.93
2018-01-23T21:56:34.629Z,25.73
2018-01-23T21:59:01.589Z,27.30
2018-01-23T22:01:28.601Z,26.13
2018-01-23T22:03:55.693Z,26.60
2018-01-23T22:06:22.649Z,26.73
2018-01-23T22:08:49.632Z,26.10
2018-01-23T22:11:17.366Z,24.70
2018-01-23T22:13:44.328Z,24.07
2018-01-23T22:16:11.277Z,24.50
2018-01-23T22:18:38.216Z,25.17
2018-01-23T22:21:05.171Z,23.90
2018-01-23T22:26:07.816Z,23.10
2018-01-23T22:28:34.765Z,21.60
2018-01-23T22:31:01.729Z,22.47
2018-01-23T22:33:28.681Z,22.97
2018-01-23T22:35:55.632Z,23.00
2018-01-23T22:38:22.587Z,20.93
2018-01-23T22:40:49.524Z,21.27
2018-01-23T22:43:16.474Z,21.93
2018-01-23T22:45:43.416Z,19.93
2018-01-23T22:48:10.378Z,21.07
2018-01-23T22:50:37.320Z,20.03
2018-01-23T22:53:04.280Z,20.37
2018-01-23T22:55:31.223Z,19.60
2018-01-23T22:57:58.167Z,18.80
2018-01-23T23:00:25.253Z,20.77
2018-01-23T23:02:53.290Z,19.30
2018-01-23T23:05:20.232Z,19.70
2018-01-23T23:07:47.173Z,18.97
2018-01-23T23:10:14.121Z,18.07
2018-01-23T23:12:41.065Z,18.10
2018-01-23T23:15:08.011Z,18.10
2018-01-23T23:17:34.968Z,18.07
2018-01-23T23:20:01.921Z,17.07
2018-01-23T23:22:28.863Z,17.77
2018-01-23T23:24:56.877Z,17.10
2018-01-23T23:27:23.831Z,16.77
2018-01-23T23:29:50.794Z,17.83
2018-01-23T23:32:17.740Z,16.50
2018-01-23T23:34:44.682Z,16.83
2018-01-23T23:37:11.630Z,16.27
2018-01-23T23:39:38.580Z,16.63
2018-01-23T23:42:05.521Z,16.53
2018-01-23T23:44:33.237Z,16.27
2018-01-23T23:47:00.197Z,15.57
2018-01-23T23:49:27.288Z,15.33
2018-01-23T23:51:55.008Z,15.40
2018-01-23T23:54:21.949Z,14.70
2018-01-23T23:56:48.892Z,14.67
2018-01-23T23:59:15.848Z,14.40
